sensor_id;sensor_type;location;lat;lon;timestamp;P1;durP1;ratioP1;P2;durP2;ratioP2
23494;SDS011;26107;50.832;2.950;2023-01-20T00:00:12;11.10;;;6.68;;
23494;SDS011;26107;50.832;2.950;2023-01-20T00:15:13;12.45;;;7.07;;
23494;SDS011;26107;50.832;2.950;2023-01-20T00:30:14;15.02;;;7.13;;
23494;SDS011;26107;50.832;2.950;2023-01-20T00:45:14;11.43;;;6.55;;
23494;SDS011;26107;50.832;2.950;2023-01-20T01:00:16;8.93;;;5.03;;
23494;SDS011;26107;50.832;2.950;2023-01-20T01:15:17;8.43;;;4.22;;
23494;SDS011;26107;50.832;2.950;2023-01-20T01:30:18;11.27;;;4.53;;
23494;SDS011;26107;50.832;2.950;2023-01-20T01:45:20;9.90;;;4.80;;
23494;SDS011;26107;50.832;2.950;2023-01-20T02:00:24;8.95;;;4.13;;
23494;SDS011;26107;50.832;2.950;2023-01-20T02:15:25;7.82;;;4.80;;
23494;SDS011;26107;50.832;2.950;2023-01-20T03:00:50;7.73;;;4.30;;
23494;SDS011;26107;50.832;2.950;2023-01-20T03:16:11;9.98;;;5.25;;
23494;SDS011;26107;50.832;2.950;2023-01-20T04:02:07;8.55;;;4.57;;
23494;SDS011;26107;50.832;2.950;2023-01-20T04:17:11;8.15;;;4.70;;
23494;SDS011;26107;50.832;2.950;2023-01-20T04:32:12;8.20;;;5.10;;
23494;SDS011;26107;50.832;2.950;2023-01-20T04:47:13;8.27;;;4.25;;
23494;SDS011;26107;50.832;2.950;2023-01-20T05:02:13;13.85;;;5.35;;
23494;SDS011;26107;50.832;2.950;2023-01-20T05:17:14;8.70;;;3.22;;
23494;SDS011;26107;50.832;2.950;2023-01-20T05:32:15;9.88;;;3.85;;
23494;SDS011;26107;50.832;2.950;2023-01-20T05:47:15;5.55;;;3.05;;
23494;SDS011;26107;50.832;2.950;2023-01-20T06:02:16;8.00;;;3.70;;
23494;SDS011;26107;50.832;2.950;2023-01-20T06:17:18;9.30;;;3.30;;
23494;SDS011;26107;50.832;2.950;2023-01-20T06:32:19;6.15;;;3.50;;
23494;SDS011;26107;50.832;2.950;2023-01-20T06:47:19;9.73;;;2.90;;
23494;SDS011;26107;50.832;2.950;2023-01-20T07:02:20;11.68;;;3.33;;
23494;SDS011;26107;50.832;2.950;2023-01-20T07:17:20;9.40;;;3.20;;
23494;SDS011;26107;50.832;2.950;2023-01-20T07:32:21;9.70;;;3.42;;
23494;SDS011;26107;50.832;2.950;2023-01-20T07:47:22;12.38;;;3.63;;
23494;SDS011;26107;50.832;2.950;2023-01-20T08:02:22;8.77;;;3.47;;
23494;SDS011;26107;50.832;2.950;2023-01-20T08:17:23;8.27;;;3.08;;
23494;SDS011;26107;50.832;2.950;2023-01-20T08:32:24;9.75;;;3.38;;
23494;SDS011;26107;50.832;2.950;2023-01-20T08:47:24;16.52;;;3.50;;
23494;SDS011;26107;50.832;2.950;2023-01-20T09:02:25;7.60;;;3.83;;
23494;SDS011;26107;50.832;2.950;2023-01-20T09:17:27;10.68;;;5.60;;
23494;SDS011;26107;50.832;2.950;2023-01-20T09:32:27;7.68;;;3.80;;
23494;SDS011;26107;50.832;2.950;2023-01-20T10:17:46;15.38;;;4.25;;
23494;SDS011;26107;50.832;2.950;2023-01-20T10:33:09;8.52;;;3.80;;
23494;SDS011;26107;50.832;2.950;2023-01-20T11:03:33;9.02;;;2.55;;
23494;SDS011;26107;50.832;2.950;2023-01-20T11:18:36;9.20;;;3.08;;
23494;SDS011;26107;50.832;2.950;2023-01-20T11:33:36;9.35;;;3.08;;
23494;SDS011;26107;50.832;2.950;2023-01-20T11:48:37;2.75;;;1.90;;
23494;SDS011;26107;50.832;2.950;2023-01-20T12:18:56;5.28;;;1.50;;
23494;SDS011;26107;50.832;2.950;2023-01-20T12:34:04;6.43;;;2.63;;
23494;SDS011;26107;50.832;2.950;2023-01-20T13:04:57;5.15;;;1.70;;
23494;SDS011;26107;50.832;2.950;2023-01-20T14:05:30;5.68;;;2.03;;
23494;SDS011;26107;50.832;2.950;2023-01-20T14:20:31;9.27;;;2.10;;
23494;SDS011;26107;50.832;2.950;2023-01-20T14:35:32;10.10;;;1.85;;
23494;SDS011;26107;50.832;2.950;2023-01-20T14:50:33;6.38;;;1.90;;
23494;SDS011;26107;50.832;2.950;2023-01-20T15:05:34;8.25;;;2.05;;
23494;SDS011;26107;50.832;2.950;2023-01-20T15:20:37;13.05;;;2.22;;
23494;SDS011;26107;50.832;2.950;2023-01-20T15:35:40;11.20;;;2.20;;
23494;SDS011;26107;50.832;2.950;2023-01-20T15:50:41;8.43;;;2.60;;
23494;SDS011;26107;50.832;2.950;2023-01-20T16:05:42;9.88;;;2.05;;
23494;SDS011;26107;50.832;2.950;2023-01-20T16:20:43;10.60;;;3.30;;
23494;SDS011;26107;50.832;2.950;2023-01-20T16:35:45;9.35;;;1.70;;
23494;SDS011;26107;50.832;2.950;2023-01-20T16:50:46;5.18;;;1.98;;
23494;SDS011;26107;50.832;2.950;2023-01-20T17:05:47;5.88;;;1.52;;
23494;SDS011;26107;50.832;2.950;2023-01-20T17:20:47;3.70;;;1.30;;
23494;SDS011;26107;50.832;2.950;2023-01-20T17:36:01;5.03;;;1.40;;
23494;SDS011;26107;50.832;2.950;2023-01-20T17:51:10;11.43;;;1.27;;
23494;SDS011;26107;50.832;2.950;2023-01-20T18:06:14;4.53;;;0.93;;
23494;SDS011;26107;50.832;2.950;2023-01-20T18:21:20;3.05;;;1.20;;
23494;SDS011;26107;50.832;2.950;2023-01-20T18:36:23;5.20;;;1.13;;
23494;SDS011;26107;50.832;2.950;2023-01-20T18:51:29;2.90;;;1.00;;
23494;SDS011;26107;50.832;2.950;2023-01-20T19:06:31;3.33;;;1.10;;
23494;SDS011;26107;50.832;2.950;2023-01-20T19:21:35;4.15;;;1.27;;
23494;SDS011;26107;50.832;2.950;2023-01-20T19:36:37;2.63;;;1.75;;
23494;SDS011;26107;50.832;2.950;2023-01-20T19:51:38;3.92;;;1.75;;
23494;SDS011;26107;50.832;2.950;2023-01-20T20:06:40;4.03;;;2.67;;
23494;SDS011;26107;50.832;2.950;2023-01-20T20:21:45;13.02;;;7.13;;
23494;SDS011;26107;50.832;2.950;2023-01-20T20:36:46;15.27;;;8.02;;
23494;SDS011;26107;50.832;2.950;2023-01-20T20:51:47;21.08;;;13.35;;
23494;SDS011;26107;50.832;2.950;2023-01-20T21:06:48;24.60;;;15.45;;
23494;SDS011;26107;50.832;2.950;2023-01-20T21:36:49;25.10;;;15.88;;
23494;SDS011;26107;50.832;2.950;2023-01-20T21:51:50;25.23;;;15.55;;
23494;SDS011;26107;50.832;2.950;2023-01-20T22:07:09;23.33;;;15.07;;
23494;SDS011;26107;50.832;2.950;2023-01-20T22:22:10;24.17;;;13.98;;
23494;SDS011;26107;50.832;2.950;2023-01-20T22:52:11;19.20;;;13.52;;
23494;SDS011;26107;50.832;2.950;2023-01-20T23:22:13;16.38;;;10.35;;
23494;SDS011;26107;50.832;2.950;2023-01-20T23:52:14;17.55;;;11.68;;
